Weimar, California
Current Conditions -  °F | °C
As of 6:15 AM on Friday 19 Dec 2014 (Local Time) from KAUN Reporting Station
Overcast Overcast  
Wind Chill: 50°   Ceiling: 4600
Heat Index: 50°   Visibility: 10mi
Dew Point: 41°   Wind: 10mph
Humidity: 71%   Direction: 140°SE
Pressure: 30.14"   Gusts: NA
Location:  39.04°N, 120.97°W
Report Text: KAUN 191415Z AUTO 14009KT 10SM SCT033 BKN046 OVC095 10/05 A3014 RMK AO1
Loading
Personal Weather Stations






























Interactive Weather Map New forecast layout! Learn more

10-Day Weather Forecast

Advertisements
Track Severe Weather on mobile